sensor_id;sensor_type;location;lat;lon;timestamp;P1;durP1;ratioP1;P2;durP2;ratioP2
43628;SDS011;56545;48.224;11.678;2022-12-24T00:02:19;2.83;;;1.20;;
43628;SDS011;56545;48.224;11.678;2022-12-24T00:04:45;3.05;;;1.17;;
43628;SDS011;56545;48.224;11.678;2022-12-24T00:07:11;3.05;;;0.90;;
43628;SDS011;56545;48.224;11.678;2022-12-24T00:09:37;3.05;;;0.90;;
43628;SDS011;56545;48.224;11.678;2022-12-24T00:12:03;1.80;;;0.70;;
43628;SDS011;56545;48.224;11.678;2022-12-24T00:14:29;3.10;;;0.80;;
43628;SDS011;56545;48.224;11.678;2022-12-24T00:16:55;3.75;;;0.80;;
43628;SDS011;56545;48.224;11.678;2022-12-24T00:19:20;1.73;;;0.63;;
43628;SDS011;56545;48.224;11.678;2022-12-24T00:21:46;1.77;;;0.80;;
43628;SDS011;56545;48.224;11.678;2022-12-24T00:24:12;2.08;;;0.80;;
43628;SDS011;56545;48.224;11.678;2022-12-24T00:26:38;4.03;;;0.90;;
43628;SDS011;56545;48.224;11.678;2022-12-24T00:29:04;1.85;;;0.70;;
43628;SDS011;56545;48.224;11.678;2022-12-24T00:31:30;2.53;;;0.90;;
43628;SDS011;56545;48.224;11.678;2022-12-24T00:33:56;1.90;;;0.57;;
43628;SDS011;56545;48.224;11.678;2022-12-24T00:36:22;2.95;;;0.73;;
43628;SDS011;56545;48.224;11.678;2022-12-24T00:38:48;3.30;;;0.60;;
43628;SDS011;56545;48.224;11.678;2022-12-24T00:41:14;3.70;;;0.80;;
43628;SDS011;56545;48.224;11.678;2022-12-24T00:43:59;1.98;;;0.75;;
43628;SDS011;56545;48.224;11.678;2022-12-24T00:46:27;2.03;;;0.70;;
43628;SDS011;56545;48.224;11.678;2022-12-24T00:48:54;1.20;;;0.45;;
43628;SDS011;56545;48.224;11.678;2022-12-24T00:51:20;1.60;;;0.73;;
43628;SDS011;56545;48.224;11.678;2022-12-24T00:53:47;1.90;;;0.80;;
43628;SDS011;56545;48.224;11.678;2022-12-24T00:56:14;2.60;;;1.00;;
43628;SDS011;56545;48.224;11.678;2022-12-24T00:58:40;3.78;;;1.15;;
43628;SDS011;56545;48.224;11.678;2022-12-24T01:01:06;3.65;;;1.38;;
43628;SDS011;56545;48.224;11.678;2022-12-24T01:03:32;3.08;;;0.90;;
43628;SDS011;56545;48.224;11.678;2022-12-24T01:06:02;3.55;;;0.80;;
43628;SDS011;56545;48.224;11.678;2022-12-24T01:08:29;1.88;;;0.80;;
43628;SDS011;56545;48.224;11.678;2022-12-24T01:10:55;0.90;;;0.52;;
43628;SDS011;56545;48.224;11.678;2022-12-24T01:13:21;4.10;;;0.90;;
43628;SDS011;56545;48.224;11.678;2022-12-24T01:15:47;3.67;;;0.77;;
43628;SDS011;56545;48.224;11.678;2022-12-24T01:18:13;1.63;;;0.60;;
43628;SDS011;56545;48.224;11.678;2022-12-24T01:20:39;2.25;;;0.80;;
43628;SDS011;56545;48.224;11.678;2022-12-24T01:23:05;2.55;;;1.38;;
43628;SDS011;56545;48.224;11.678;2022-12-24T01:25:31;2.35;;;0.90;;
43628;SDS011;56545;48.224;11.678;2022-12-24T01:27:57;2.33;;;0.88;;
43628;SDS011;56545;48.224;11.678;2022-12-24T01:30:23;1.65;;;0.90;;
43628;SDS011;56545;48.224;11.678;2022-12-24T01:32:49;3.15;;;1.08;;
43628;SDS011;56545;48.224;11.678;2022-12-24T01:35:15;2.95;;;0.90;;
43628;SDS011;56545;48.224;11.678;2022-12-24T01:37:41;1.83;;;0.80;;
43628;SDS011;56545;48.224;11.678;2022-12-24T01:40:09;2.70;;;1.02;;
43628;SDS011;56545;48.224;11.678;2022-12-24T01:42:57;2.75;;;0.77;;
43628;SDS011;56545;48.224;11.678;2022-12-24T01:45:46;1.77;;;0.90;;
43628;SDS011;56545;48.224;11.678;2022-12-24T01:48:17;1.83;;;1.00;;
43628;SDS011;56545;48.224;11.678;2022-12-24T01:51:01;3.40;;;0.90;;
43628;SDS011;56545;48.224;11.678;2022-12-24T01:53:28;1.73;;;0.73;;
43628;SDS011;56545;48.224;11.678;2022-12-24T01:55:55;1.45;;;0.80;;
43628;SDS011;56545;48.224;11.678;2022-12-24T01:58:21;3.95;;;0.98;;
43628;SDS011;56545;48.224;11.678;2022-12-24T02:00:50;2.13;;;0.73;;
43628;SDS011;56545;48.224;11.678;2022-12-24T02:03:16;4.03;;;0.85;;
43628;SDS011;56545;48.224;11.678;2022-12-24T02:05:45;1.42;;;0.70;;
43628;SDS011;56545;48.224;11.678;2022-12-24T02:08:14;2.00;;;0.70;;
43628;SDS011;56545;48.224;11.678;2022-12-24T02:10:41;3.25;;;0.68;;
43628;SDS011;56545;48.224;11.678;2022-12-24T02:13:08;1.30;;;0.55;;
43628;SDS011;56545;48.224;11.678;2022-12-24T02:15:50;2.90;;;0.63;;
43628;SDS011;56545;48.224;11.678;2022-12-24T02:18:39;3.53;;;0.80;;
43628;SDS011;56545;48.224;11.678;2022-12-24T02:21:34;1.23;;;0.57;;
43628;SDS011;56545;48.224;11.678;2022-12-24T02:24:20;2.60;;;0.70;;
43628;SDS011;56545;48.224;11.678;2022-12-24T02:31:58;1.83;;;0.68;;
43628;SDS011;56545;48.224;11.678;2022-12-24T02:34:29;2.60;;;0.75;;
43628;SDS011;56545;48.224;11.678;2022-12-24T02:37:07;2.15;;;0.77;;
43628;SDS011;56545;48.224;11.678;2022-12-24T02:42:08;2.08;;;0.68;;
43628;SDS011;56545;48.224;11.678;2022-12-24T02:44:43;1.95;;;0.50;;
43628;SDS011;56545;48.224;11.678;2022-12-24T02:47:15;1.48;;;0.70;;
43628;SDS011;56545;48.224;11.678;2022-12-24T02:49:44;2.15;;;0.63;;
43628;SDS011;56545;48.224;11.678;2022-12-24T02:54:56;3.45;;;0.65;;
43628;SDS011;56545;48.224;11.678;2022-12-24T03:00:18;2.30;;;0.77;;
43628;SDS011;56545;48.224;11.678;2022-12-24T03:05:41;1.83;;;0.70;;
43628;SDS011;56545;48.224;11.678;2022-12-24T03:09:01;2.80;;;0.70;;
43628;SDS011;56545;48.224;11.678;2022-12-24T03:11:13;4.30;;;0.60;;
43628;SDS011;56545;48.224;11.678;2022-12-24T03:13:40;3.33;;;0.68;;
43628;SDS011;56545;48.224;11.678;2022-12-24T03:16:09;2.75;;;1.05;;
43628;SDS011;56545;48.224;11.678;2022-12-24T03:18:39;4.53;;;0.93;;
43628;SDS011;56545;48.224;11.678;2022-12-24T03:21:10;3.38;;;0.80;;
43628;SDS011;56545;48.224;11.678;2022-12-24T03:23:46;2.47;;;0.70;;
43628;SDS011;56545;48.224;11.678;2022-12-24T03:26:13;4.57;;;0.85;;
43628;SDS011;56545;48.224;11.678;2022-12-24T03:28:41;3.05;;;0.70;;
43628;SDS011;56545;48.224;11.678;2022-12-24T03:31:09;4.75;;;0.80;;
43628;SDS011;56545;48.224;11.678;2022-12-24T03:33:36;3.25;;;0.90;;
43628;SDS011;56545;48.224;11.678;2022-12-24T03:36:03;3.22;;;0.77;;
43628;SDS011;56545;48.224;11.678;2022-12-24T03:38:30;3.67;;;0.85;;
43628;SDS011;56545;48.224;11.678;2022-12-24T03:40:56;3.40;;;0.80;;
43628;SDS011;56545;48.224;11.678;2022-12-24T03:43:22;2.80;;;0.70;;
43628;SDS011;56545;48.224;11.678;2022-12-24T03:45:48;1.83;;;0.70;;
43628;SDS011;56545;48.224;11.678;2022-12-24T03:48:13;3.25;;;0.70;;
43628;SDS011;56545;48.224;11.678;2022-12-24T03:50:39;2.05;;;0.73;;
43628;SDS011;56545;48.224;11.678;2022-12-24T03:53:05;3.72;;;0.85;;
43628;SDS011;56545;48.224;11.678;2022-12-24T03:55:31;3.70;;;0.73;;
43628;SDS011;56545;48.224;11.678;2022-12-24T03:57:57;4.30;;;0.95;;
43628;SDS011;56545;48.224;11.678;2022-12-24T04:00:23;6.15;;;1.00;;
43628;SDS011;56545;48.224;11.678;2022-12-24T04:02:49;2.33;;;0.68;;
43628;SDS011;56545;48.224;11.678;2022-12-24T04:05:16;2.72;;;0.88;;
43628;SDS011;56545;48.224;11.678;2022-12-24T04:07:43;1.85;;;0.70;;
43628;SDS011;56545;48.224;11.678;2022-12-24T04:10:10;2.95;;;0.80;;
43628;SDS011;56545;48.224;11.678;2022-12-24T04:12:36;3.75;;;0.90;;
43628;SDS011;56545;48.224;11.678;2022-12-24T04:15:03;4.32;;;1.05;;
43628;SDS011;56545;48.224;11.678;2022-12-24T04:17:29;3.60;;;1.00;;
43628;SDS011;56545;48.224;11.678;2022-12-24T04:19:55;2.58;;;0.80;;
43628;SDS011;56545;48.224;11.678;2022-12-24T04:22:21;4.30;;;1.17;;
43628;SDS011;56545;48.224;11.678;2022-12-24T04:24:47;2.67;;;1.10;;
43628;SDS011;56545;48.224;11.678;2022-12-24T04:27:14;4.05;;;0.85;;
43628;SDS011;56545;48.224;11.678;2022-12-24T04:29:40;4.18;;;1.02;;
43628;SDS011;56545;48.224;11.678;2022-12-24T04:32:06;3.50;;;0.90;;
43628;SDS011;56545;48.224;11.678;2022-12-24T04:34:34;4.57;;;1.05;;
43628;SDS011;56545;48.224;11.678;2022-12-24T04:37:00;5.07;;;1.10;;
43628;SDS011;56545;48.224;11.678;2022-12-24T04:39:26;5.20;;;1.23;;
43628;SDS011;56545;48.224;11.678;2022-12-24T04:41:52;3.90;;;0.90;;
43628;SDS011;56545;48.224;11.678;2022-12-24T04:44:18;4.13;;;1.27;;
43628;SDS011;56545;48.224;11.678;2022-12-24T04:46:43;6.93;;;1.90;;
43628;SDS011;56545;48.224;11.678;2022-12-24T04:49:09;5.22;;;1.17;;
43628;SDS011;56545;48.224;11.678;2022-12-24T04:51:35;2.63;;;1.08;;
43628;SDS011;56545;48.224;11.678;2022-12-24T04:54:02;2.30;;;1.00;;
43628;SDS011;56545;48.224;11.678;2022-12-24T04:56:28;3.90;;;1.20;;
43628;SDS011;56545;48.224;11.678;2022-12-24T04:58:56;3.28;;;0.85;;
43628;SDS011;56545;48.224;11.678;2022-12-24T05:01:24;6.13;;;1.10;;
43628;SDS011;56545;48.224;11.678;2022-12-24T05:03:52;2.60;;;1.05;;
43628;SDS011;56545;48.224;11.678;2022-12-24T05:06:22;3.65;;;1.02;;
43628;SDS011;56545;48.224;11.678;2022-12-24T05:08:52;4.65;;;1.10;;
43628;SDS011;56545;48.224;11.678;2022-12-24T05:11:19;3.22;;;0.90;;
43628;SDS011;56545;48.224;11.678;2022-12-24T05:13:46;3.28;;;0.90;;
43628;SDS011;56545;48.224;11.678;2022-12-24T05:16:12;4.80;;;1.17;;
43628;SDS011;56545;48.224;11.678;2022-12-24T05:18:39;2.67;;;0.85;;
43628;SDS011;56545;48.224;11.678;2022-12-24T05:21:09;3.65;;;0.80;;
43628;SDS011;56545;48.224;11.678;2022-12-24T05:23:37;4.20;;;0.98;;
43628;SDS011;56545;48.224;11.678;2022-12-24T05:26:29;3.60;;;0.98;;
43628;SDS011;56545;48.224;11.678;2022-12-24T05:29:04;3.70;;;1.10;;
43628;SDS011;56545;48.224;11.678;2022-12-24T05:31:31;6.20;;;1.42;;
43628;SDS011;56545;48.224;11.678;2022-12-24T05:33:58;3.58;;;0.90;;
43628;SDS011;56545;48.224;11.678;2022-12-24T05:36:24;4.25;;;1.00;;
43628;SDS011;56545;48.224;11.678;2022-12-24T05:38:51;4.13;;;0.80;;
43628;SDS011;56545;48.224;11.678;2022-12-24T05:41:17;3.08;;;0.93;;
43628;SDS011;56545;48.224;11.678;2022-12-24T05:43:43;4.63;;;1.08;;
43628;SDS011;56545;48.224;11.678;2022-12-24T05:46:10;4.22;;;1.23;;
43628;SDS011;56545;48.224;11.678;2022-12-24T05:48:38;6.07;;;1.27;;
43628;SDS011;56545;48.224;11.678;2022-12-24T05:51:04;4.40;;;0.98;;
43628;SDS011;56545;48.224;11.678;2022-12-24T05:53:31;4.75;;;1.02;;
43628;SDS011;56545;48.224;11.678;2022-12-24T05:56:02;5.25;;;0.90;;
43628;SDS011;56545;48.224;11.678;2022-12-24T05:58:29;4.35;;;1.00;;
43628;SDS011;56545;48.224;11.678;2022-12-24T06:00:55;4.40;;;1.00;;
43628;SDS011;56545;48.224;11.678;2022-12-24T06:03:21;2.28;;;0.88;;
43628;SDS011;56545;48.224;11.678;2022-12-24T06:05:47;3.72;;;0.77;;
43628;SDS011;56545;48.224;11.678;2022-12-24T06:08:13;2.83;;;0.80;;
43628;SDS011;56545;48.224;11.678;2022-12-24T06:10:38;4.22;;;0.80;;
43628;SDS011;56545;48.224;11.678;2022-12-24T06:13:04;2.90;;;0.90;;
43628;SDS011;56545;48.224;11.678;2022-12-24T06:15:30;3.92;;;0.93;;
43628;SDS011;56545;48.224;11.678;2022-12-24T06:17:56;5.15;;;0.90;;
43628;SDS011;56545;48.224;11.678;2022-12-24T06:20:22;5.55;;;1.05;;
43628;SDS011;56545;48.224;11.678;2022-12-24T06:22:48;6.20;;;0.80;;
43628;SDS011;56545;48.224;11.678;2022-12-24T06:25:14;4.63;;;0.88;;
43628;SDS011;56545;48.224;11.678;2022-12-24T06:27:40;2.17;;;0.82;;
43628;SDS011;56545;48.224;11.678;2022-12-24T06:30:06;4.00;;;0.90;;
43628;SDS011;56545;48.224;11.678;2022-12-24T06:32:32;3.78;;;0.88;;
43628;SDS011;56545;48.224;11.678;2022-12-24T06:34:58;4.32;;;1.17;;
43628;SDS011;56545;48.224;11.678;2022-12-24T06:37:24;3.67;;;0.80;;
43628;SDS011;56545;48.224;11.678;2022-12-24T06:39:50;3.78;;;1.15;;
43628;SDS011;56545;48.224;11.678;2022-12-24T06:42:16;5.68;;;1.25;;
43628;SDS011;56545;48.224;11.678;2022-12-24T06:44:42;5.03;;;1.67;;
43628;SDS011;56545;48.224;11.678;2022-12-24T06:47:08;4.25;;;1.23;;
43628;SDS011;56545;48.224;11.678;2022-12-24T06:49:33;2.90;;;1.10;;
43628;SDS011;56545;48.224;11.678;2022-12-24T06:51:59;6.47;;;1.20;;
43628;SDS011;56545;48.224;11.678;2022-12-24T06:54:25;5.13;;;1.58;;
43628;SDS011;56545;48.224;11.678;2022-12-24T06:56:51;4.38;;;1.35;;
43628;SDS011;56545;48.224;11.678;2022-12-24T06:59:17;4.15;;;1.08;;
43628;SDS011;56545;48.224;11.678;2022-12-24T07:01:43;4.90;;;0.90;;
43628;SDS011;56545;48.224;11.678;2022-12-24T07:04:09;5.28;;;1.25;;
43628;SDS011;56545;48.224;11.678;2022-12-24T07:06:35;4.53;;;1.20;;
43628;SDS011;56545;48.224;11.678;2022-12-24T07:09:01;5.03;;;1.17;;
43628;SDS011;56545;48.224;11.678;2022-12-24T07:11:26;5.07;;;1.00;;
43628;SDS011;56545;48.224;11.678;2022-12-24T07:13:53;2.58;;;0.85;;
43628;SDS011;56545;48.224;11.678;2022-12-24T07:16:18;3.95;;;0.98;;
43628;SDS011;56545;48.224;11.678;2022-12-24T07:18:45;5.85;;;1.15;;
43628;SDS011;56545;48.224;11.678;2022-12-24T07:21:11;2.85;;;0.90;;
43628;SDS011;56545;48.224;11.678;2022-12-24T07:23:37;2.50;;;0.88;;
43628;SDS011;56545;48.224;11.678;2022-12-24T07:26:03;3.30;;;0.90;;
43628;SDS011;56545;48.224;11.678;2022-12-24T07:28:30;2.33;;;0.60;;
43628;SDS011;56545;48.224;11.678;2022-12-24T07:30:56;2.33;;;0.60;;
43628;SDS011;56545;48.224;11.678;2022-12-24T07:33:23;2.58;;;0.80;;
43628;SDS011;56545;48.224;11.678;2022-12-24T07:36:03;2.13;;;0.70;;
43628;SDS011;56545;48.224;11.678;2022-12-24T07:38:30;3.70;;;0.80;;
43628;SDS011;56545;48.224;11.678;2022-12-24T07:40:57;2.33;;;0.70;;
43628;SDS011;56545;48.224;11.678;2022-12-24T07:43:23;3.92;;;1.50;;
43628;SDS011;56545;48.224;11.678;2022-12-24T07:45:52;2.95;;;1.10;;
43628;SDS011;56545;48.224;11.678;2022-12-24T07:48:20;3.60;;;0.90;;
43628;SDS011;56545;48.224;11.678;2022-12-24T07:50:48;2.85;;;0.75;;
43628;SDS011;56545;48.224;11.678;2022-12-24T07:53:14;3.22;;;0.88;;
43628;SDS011;56545;48.224;11.678;2022-12-24T07:55:40;3.13;;;0.90;;
43628;SDS011;56545;48.224;11.678;2022-12-24T07:58:06;2.80;;;0.75;;
43628;SDS011;56545;48.224;11.678;2022-12-24T08:00:32;4.25;;;0.70;;
43628;SDS011;56545;48.224;11.678;2022-12-24T08:02:58;2.15;;;0.65;;
43628;SDS011;56545;48.224;11.678;2022-12-24T08:05:24;3.60;;;1.23;;
43628;SDS011;56545;48.224;11.678;2022-12-24T08:07:51;5.78;;;1.20;;
43628;SDS011;56545;48.224;11.678;2022-12-24T08:10:17;3.97;;;1.48;;
43628;SDS011;56545;48.224;11.678;2022-12-24T08:12:43;5.25;;;1.33;;
43628;SDS011;56545;48.224;11.678;2022-12-24T08:15:09;5.00;;;1.60;;
43628;SDS011;56545;48.224;11.678;2022-12-24T08:17:36;4.22;;;1.48;;
43628;SDS011;56545;48.224;11.678;2022-12-24T08:20:02;2.58;;;1.00;;
43628;SDS011;56545;48.224;11.678;2022-12-24T08:22:29;3.13;;;0.93;;
43628;SDS011;56545;48.224;11.678;2022-12-24T08:24:55;2.97;;;0.80;;
43628;SDS011;56545;48.224;11.678;2022-12-24T08:27:21;2.97;;;0.95;;
43628;SDS011;56545;48.224;11.678;2022-12-24T08:29:47;2.47;;;0.73;;
43628;SDS011;56545;48.224;11.678;2022-12-24T08:32:13;2.03;;;0.68;;
43628;SDS011;56545;48.224;11.678;2022-12-24T08:34:39;3.35;;;1.13;;
43628;SDS011;56545;48.224;11.678;2022-12-24T08:37:05;3.45;;;0.70;;
43628;SDS011;56545;48.224;11.678;2022-12-24T08:39:31;2.13;;;0.57;;
43628;SDS011;56545;48.224;11.678;2022-12-24T08:41:57;2.97;;;0.90;;
43628;SDS011;56545;48.224;11.678;2022-12-24T08:44:23;3.05;;;0.73;;
43628;SDS011;56545;48.224;11.678;2022-12-24T08:46:48;4.78;;;1.05;;
43628;SDS011;56545;48.224;11.678;2022-12-24T08:49:14;4.22;;;1.00;;
43628;SDS011;56545;48.224;11.678;2022-12-24T08:51:40;5.28;;;0.90;;
43628;SDS011;56545;48.224;11.678;2022-12-24T08:54:06;3.75;;;0.70;;
43628;SDS011;56545;48.224;11.678;2022-12-24T08:56:32;3.50;;;1.10;;
43628;SDS011;56545;48.224;11.678;2022-12-24T08:58:58;4.10;;;1.00;;
43628;SDS011;56545;48.224;11.678;2022-12-24T09:01:24;5.85;;;1.40;;
43628;SDS011;56545;48.224;11.678;2022-12-24T09:03:50;4.63;;;1.00;;
43628;SDS011;56545;48.224;11.678;2022-12-24T09:06:16;2.97;;;0.90;;
43628;SDS011;56545;48.224;11.678;2022-12-24T09:08:42;6.03;;;1.30;;
43628;SDS011;56545;48.224;11.678;2022-12-24T09:11:15;10.20;;;1.83;;
43628;SDS011;56545;48.224;11.678;2022-12-24T09:16:08;5.13;;;1.13;;
43628;SDS011;56545;48.224;11.678;2022-12-24T09:18:35;3.25;;;0.90;;
43628;SDS011;56545;48.224;11.678;2022-12-24T09:21:02;2.83;;;0.82;;
43628;SDS011;56545;48.224;11.678;2022-12-24T09:23:33;3.08;;;0.60;;
43628;SDS011;56545;48.224;11.678;2022-12-24T09:26:06;2.70;;;0.80;;
43628;SDS011;56545;48.224;11.678;2022-12-24T09:28:55;2.10;;;0.65;;
43628;SDS011;56545;48.224;11.678;2022-12-24T09:31:22;2.28;;;0.80;;
43628;SDS011;56545;48.224;11.678;2022-12-24T09:33:48;3.35;;;1.00;;
43628;SDS011;56545;48.224;11.678;2022-12-24T09:36:15;5.18;;;1.40;;
43628;SDS011;56545;48.224;11.678;2022-12-24T09:38:42;3.90;;;1.00;;
43628;SDS011;56545;48.224;11.678;2022-12-24T09:41:13;3.35;;;0.70;;
43628;SDS011;56545;48.224;11.678;2022-12-24T09:43:48;3.13;;;0.90;;
43628;SDS011;56545;48.224;11.678;2022-12-24T09:46:24;3.95;;;1.25;;
43628;SDS011;56545;48.224;11.678;2022-12-24T09:48:54;4.57;;;1.35;;
43628;SDS011;56545;48.224;11.678;2022-12-24T09:51:25;4.50;;;1.50;;
43628;SDS011;56545;48.224;11.678;2022-12-24T09:53:56;6.63;;;1.70;;
43628;SDS011;56545;48.224;11.678;2022-12-24T09:56:37;2.67;;;0.90;;
43628;SDS011;56545;48.224;11.678;2022-12-24T09:59:05;3.38;;;0.77;;
43628;SDS011;56545;48.224;11.678;2022-12-24T10:01:37;2.42;;;0.88;;
43628;SDS011;56545;48.224;11.678;2022-12-24T10:04:06;1.63;;;0.60;;
43628;SDS011;56545;48.224;11.678;2022-12-24T10:09:34;3.42;;;0.90;;
43628;SDS011;56545;48.224;11.678;2022-12-24T10:12:13;2.80;;;0.70;;
43628;SDS011;56545;48.224;11.678;2022-12-24T10:14:49;3.70;;;1.00;;
43628;SDS011;56545;48.224;11.678;2022-12-24T10:20:44;2.92;;;0.75;;
43628;SDS011;56545;48.224;11.678;2022-12-24T10:26:17;5.03;;;1.20;;
43628;SDS011;56545;48.224;11.678;2022-12-24T10:29:05;4.00;;;1.13;;
43628;SDS011;56545;48.224;11.678;2022-12-24T10:31:44;3.92;;;1.10;;
43628;SDS011;56545;48.224;11.678;2022-12-24T10:34:22;3.17;;;0.75;;
43628;SDS011;56545;48.224;11.678;2022-12-24T10:36:50;5.38;;;1.58;;
43628;SDS011;56545;48.224;11.678;2022-12-24T10:39:20;5.47;;;1.38;;
43628;SDS011;56545;48.224;11.678;2022-12-24T10:41:48;4.05;;;0.90;;
43628;SDS011;56545;48.224;11.678;2022-12-24T10:44:17;3.95;;;1.50;;
43628;SDS011;56545;48.224;11.678;2022-12-24T10:46:45;5.38;;;1.60;;
43628;SDS011;56545;48.224;11.678;2022-12-24T10:49:16;4.80;;;1.90;;
43628;SDS011;56545;48.224;11.678;2022-12-24T10:51:56;5.57;;;1.15;;
43628;SDS011;56545;48.224;11.678;2022-12-24T10:54:27;2.93;;;0.90;;
43628;SDS011;56545;48.224;11.678;2022-12-24T10:57:02;2.08;;;1.02;;
43628;SDS011;56545;48.224;11.678;2022-12-24T10:59:35;3.13;;;1.10;;
43628;SDS011;56545;48.224;11.678;2022-12-24T11:02:27;3.58;;;1.17;;
43628;SDS011;56545;48.224;11.678;2022-12-24T11:04:58;2.78;;;1.00;;
43628;SDS011;56545;48.224;11.678;2022-12-24T11:07:27;7.50;;;2.60;;
43628;SDS011;56545;48.224;11.678;2022-12-24T11:09:58;5.05;;;1.65;;
43628;SDS011;56545;48.224;11.678;2022-12-24T11:12:32;5.88;;;1.50;;
43628;SDS011;56545;48.224;11.678;2022-12-24T11:17:51;4.78;;;1.77;;
43628;SDS011;56545;48.224;11.678;2022-12-24T11:20:25;4.63;;;1.50;;
43628;SDS011;56545;48.224;11.678;2022-12-24T11:22:53;8.45;;;2.25;;
43628;SDS011;56545;48.224;11.678;2022-12-24T11:25:20;5.15;;;1.92;;
43628;SDS011;56545;48.224;11.678;2022-12-24T11:27:56;2.47;;;0.85;;
43628;SDS011;56545;48.224;11.678;2022-12-24T11:30:36;5.55;;;1.50;;
43628;SDS011;56545;48.224;11.678;2022-12-24T11:35:32;4.55;;;1.50;;
43628;SDS011;56545;48.224;11.678;2022-12-24T11:40:42;5.88;;;1.70;;
43628;SDS011;56545;48.224;11.678;2022-12-24T11:43:17;5.22;;;1.58;;
43628;SDS011;56545;48.224;11.678;2022-12-24T11:45:49;3.47;;;1.42;;
43628;SDS011;56545;48.224;11.678;2022-12-24T11:48:32;4.38;;;1.45;;
43628;SDS011;56545;48.224;11.678;2022-12-24T11:53:40;4.53;;;1.33;;
43628;SDS011;56545;48.224;11.678;2022-12-24T11:56:13;3.75;;;1.10;;
43628;SDS011;56545;48.224;11.678;2022-12-24T11:59:46;5.28;;;1.80;;
43628;SDS011;56545;48.224;11.678;2022-12-24T12:02:01;4.43;;;1.40;;
43628;SDS011;56545;48.224;11.678;2022-12-24T12:04:42;6.10;;;1.85;;
43628;SDS011;56545;48.224;11.678;2022-12-24T12:07:12;4.47;;;1.58;;
43628;SDS011;56545;48.224;11.678;2022-12-24T12:12:43;5.40;;;1.60;;
43628;SDS011;56545;48.224;11.678;2022-12-24T12:15:24;4.30;;;1.08;;
43628;SDS011;56545;48.224;11.678;2022-12-24T12:18:02;5.97;;;1.42;;
43628;SDS011;56545;48.224;11.678;2022-12-24T12:25:58;9.60;;;2.40;;
43628;SDS011;56545;48.224;11.678;2022-12-24T12:28:41;7.70;;;1.90;;
43628;SDS011;56545;48.224;11.678;2022-12-24T12:31:20;4.38;;;1.50;;
43628;SDS011;56545;48.224;11.678;2022-12-24T12:36:47;7.40;;;2.38;;
43628;SDS011;56545;48.224;11.678;2022-12-24T12:39:16;7.35;;;1.95;;
43628;SDS011;56545;48.224;11.678;2022-12-24T12:47:11;8.77;;;2.70;;
43628;SDS011;56545;48.224;11.678;2022-12-24T12:49:53;10.48;;;3.08;;
43628;SDS011;56545;48.224;11.678;2022-12-24T12:52:45;7.97;;;2.53;;
43628;SDS011;56545;48.224;11.678;2022-12-24T12:58:26;11.68;;;4.00;;
43628;SDS011;56545;48.224;11.678;2022-12-24T13:01:08;18.10;;;6.55;;
43628;SDS011;56545;48.224;11.678;2022-12-24T13:07:10;13.45;;;4.97;;
43628;SDS011;56545;48.224;11.678;2022-12-24T13:10:18;9.63;;;3.25;;
43628;SDS011;56545;48.224;11.678;2022-12-24T13:12:50;8.27;;;2.90;;
43628;SDS011;56545;48.224;11.678;2022-12-24T13:20:49;10.02;;;2.72;;
43628;SDS011;56545;48.224;11.678;2022-12-24T13:23:18;5.53;;;1.58;;
43628;SDS011;56545;48.224;11.678;2022-12-24T13:25:49;10.75;;;2.85;;
43628;SDS011;56545;48.224;11.678;2022-12-24T13:36:08;8.57;;;2.90;;
43628;SDS011;56545;48.224;11.678;2022-12-24T13:41:35;4.75;;;1.42;;
43628;SDS011;56545;48.224;11.678;2022-12-24T13:49:36;7.78;;;1.50;;
43628;SDS011;56545;48.224;11.678;2022-12-24T13:54:44;4.70;;;1.15;;
43628;SDS011;56545;48.224;11.678;2022-12-24T14:00:22;8.10;;;2.70;;
43628;SDS011;56545;48.224;11.678;2022-12-24T14:13:52;7.20;;;2.65;;
43628;SDS011;56545;48.224;11.678;2022-12-24T14:16:20;8.05;;;3.35;;
43628;SDS011;56545;48.224;11.678;2022-12-24T14:18:58;5.78;;;2.28;;
43628;SDS011;56545;48.224;11.678;2022-12-24T14:21:37;5.25;;;1.50;;
43628;SDS011;56545;48.224;11.678;2022-12-24T14:24:20;4.40;;;1.03;;
43628;SDS011;56545;48.224;11.678;2022-12-24T14:27:05;5.10;;;1.08;;
43628;SDS011;56545;48.224;11.678;2022-12-24T14:29:33;5.43;;;1.83;;
43628;SDS011;56545;48.224;11.678;2022-12-24T14:32:11;4.72;;;2.20;;
43628;SDS011;56545;48.224;11.678;2022-12-24T14:34:39;5.82;;;1.73;;
43628;SDS011;56545;48.224;11.678;2022-12-24T14:37:05;5.25;;;2.20;;
43628;SDS011;56545;48.224;11.678;2022-12-24T14:39:33;3.80;;;1.60;;
43628;SDS011;56545;48.224;11.678;2022-12-24T14:45:18;3.70;;;1.20;;
43628;SDS011;56545;48.224;11.678;2022-12-24T14:51:05;6.72;;;1.73;;
43628;SDS011;56545;48.224;11.678;2022-12-24T14:56:14;9.30;;;2.80;;
43628;SDS011;56545;48.224;11.678;2022-12-24T14:58:42;7.50;;;2.28;;
43628;SDS011;56545;48.224;11.678;2022-12-24T15:01:25;7.85;;;3.10;;
43628;SDS011;56545;48.224;11.678;2022-12-24T15:06:28;19.17;;;8.40;;
43628;SDS011;56545;48.224;11.678;2022-12-24T15:08:57;7.72;;;3.20;;
43628;SDS011;56545;48.224;11.678;2022-12-24T15:11:23;10.68;;;4.30;;
43628;SDS011;56545;48.224;11.678;2022-12-24T15:13:50;12.93;;;5.30;;
43628;SDS011;56545;48.224;11.678;2022-12-24T15:16:32;10.73;;;3.92;;
43628;SDS011;56545;48.224;11.678;2022-12-24T15:19:12;10.35;;;3.22;;
43628;SDS011;56545;48.224;11.678;2022-12-24T15:21:46;11.48;;;3.95;;
43628;SDS011;56545;48.224;11.678;2022-12-24T15:24:29;7.43;;;2.50;;
43628;SDS011;56545;48.224;11.678;2022-12-24T15:27:00;5.43;;;1.80;;
43628;SDS011;56545;48.224;11.678;2022-12-24T15:29:30;4.50;;;1.40;;
43628;SDS011;56545;48.224;11.678;2022-12-24T15:32:00;9.13;;;2.90;;
43628;SDS011;56545;48.224;11.678;2022-12-24T15:34:36;7.38;;;2.30;;
43628;SDS011;56545;48.224;11.678;2022-12-24T15:37:05;5.80;;;1.50;;
43628;SDS011;56545;48.224;11.678;2022-12-24T15:39:40;9.35;;;3.55;;
43628;SDS011;56545;48.224;11.678;2022-12-24T15:42:07;14.65;;;5.18;;
43628;SDS011;56545;48.224;11.678;2022-12-24T15:45:28;5.75;;;1.90;;
43628;SDS011;56545;48.224;11.678;2022-12-24T15:47:43;8.93;;;3.85;;
43628;SDS011;56545;48.224;11.678;2022-12-24T15:50:22;20.27;;;11.40;;
43628;SDS011;56545;48.224;11.678;2022-12-24T15:52:53;18.92;;;9.48;;
43628;SDS011;56545;48.224;11.678;2022-12-24T15:55:26;10.02;;;4.38;;
43628;SDS011;56545;48.224;11.678;2022-12-24T15:58:12;9.02;;;3.60;;
43628;SDS011;56545;48.224;11.678;2022-12-24T16:00:59;8.77;;;4.22;;
43628;SDS011;56545;48.224;11.678;2022-12-24T16:03:38;6.75;;;2.85;;
43628;SDS011;56545;48.224;11.678;2022-12-24T16:06:09;6.30;;;2.35;;
43628;SDS011;56545;48.224;11.678;2022-12-24T16:08:38;5.55;;;2.13;;
43628;SDS011;56545;48.224;11.678;2022-12-24T16:11:24;6.88;;;3.00;;
43628;SDS011;56545;48.224;11.678;2022-12-24T16:16:30;6.43;;;2.45;;
43628;SDS011;56545;48.224;11.678;2022-12-24T16:21:53;3.30;;;1.02;;
43628;SDS011;56545;48.224;11.678;2022-12-24T16:24:24;4.97;;;1.77;;
43628;SDS011;56545;48.224;11.678;2022-12-24T16:26:51;5.20;;;1.67;;
43628;SDS011;56545;48.224;11.678;2022-12-24T16:29:18;5.70;;;1.80;;
43628;SDS011;56545;48.224;11.678;2022-12-24T16:31:50;6.03;;;1.70;;
43628;SDS011;56545;48.224;11.678;2022-12-24T16:34:19;6.65;;;1.77;;
43628;SDS011;56545;48.224;11.678;2022-12-24T16:36:48;10.05;;;5.35;;
43628;SDS011;56545;48.224;11.678;2022-12-24T16:39:22;5.50;;;2.05;;
43628;SDS011;56545;48.224;11.678;2022-12-24T16:44:36;4.95;;;1.27;;
43628;SDS011;56545;48.224;11.678;2022-12-24T16:47:03;5.70;;;1.40;;
43628;SDS011;56545;48.224;11.678;2022-12-24T16:49:46;4.43;;;1.58;;
43628;SDS011;56545;48.224;11.678;2022-12-24T16:52:22;3.95;;;1.60;;